createdAt,value
2018-07-26T00:01:01.061Z,19.60
2018-07-26T00:03:29.419Z,19.60
2018-07-26T00:05:57.742Z,19.70
2018-07-26T00:08:26.188Z,19.60
2018-07-26T00:10:54.547Z,19.40
2018-07-26T00:13:22.856Z,19.50
2018-07-26T00:15:51.274Z,19.60
2018-07-26T00:18:19.835Z,19.50
2018-07-26T00:20:48.193Z,19.70
2018-07-26T00:23:16.489Z,20.00
2018-07-26T00:25:44.921Z,20.00
2018-07-26T00:28:13.314Z,19.80
2018-07-26T00:30:41.711Z,19.80
2018-07-26T00:33:10.805Z,19.80
2018-07-26T00:35:39.155Z,19.70
2018-07-26T00:38:07.539Z,19.70
2018-07-26T00:40:35.909Z,19.60
2018-07-26T00:43:04.295Z,19.60
2018-07-26T00:45:32.625Z,19.80
2018-07-26T00:48:01.307Z,19.80
2018-07-26T00:50:29.686Z,19.70
2018-07-26T00:52:58.094Z,19.50
2018-07-26T00:55:26.572Z,19.40
2018-07-26T00:57:54.918Z,19.20
2018-07-26T01:00:23.427Z,19.30
2018-07-26T01:02:51.737Z,19.20
2018-07-26T01:05:20.168Z,19.10
2018-07-26T01:07:48.712Z,19.20
2018-07-26T01:10:17.113Z,19.20
2018-07-26T01:12:45.475Z,19.00
2018-07-26T01:15:13.872Z,19.00
2018-07-26T01:17:42.231Z,18.80
2018-07-26T01:20:10.612Z,18.90
2018-07-26T01:22:38.968Z,18.90
2018-07-26T01:25:07.328Z,18.90
2018-07-26T01:27:35.707Z,18.80
2018-07-26T01:30:04.147Z,18.80
2018-07-26T01:32:32.510Z,18.70
2018-07-26T01:35:00.957Z,18.70
2018-07-26T01:37:29.390Z,18.70
2018-07-26T01:39:57.785Z,18.70
2018-07-26T01:42:26.143Z,18.60
2018-07-26T01:44:54.530Z,18.60
2018-07-26T01:47:22.961Z,18.60
2018-07-26T01:49:51.383Z,18.60
2018-07-26T01:52:19.751Z,18.60
2018-07-26T01:54:48.216Z,18.60
2018-07-26T01:57:16.609Z,18.70
2018-07-26T01:59:45.007Z,18.70
2018-07-26T02:02:13.573Z,18.50
2018-07-26T02:04:41.973Z,18.50
2018-07-26T02:07:10.457Z,18.50
2018-07-26T02:09:38.852Z,18.40
2018-07-26T02:12:07.272Z,18.30
2018-07-26T02:14:35.684Z,18.30
2018-07-26T02:17:04.640Z,18.30
2018-07-26T02:19:33.136Z,18.40
2018-07-26T02:22:01.654Z,18.40
2018-07-26T02:24:30.066Z,18.30
2018-07-26T02:26:58.470Z,18.30
2018-07-26T02:29:26.834Z,18.20
2018-07-26T02:34:23.237Z,18.30
2018-07-26T02:36:51.677Z,18.30
2018-07-26T02:39:19.950Z,18.30
2018-07-26T02:41:48.376Z,18.30
2018-07-26T02:44:16.741Z,18.20
2018-07-26T02:46:45.115Z,18.10
2018-07-26T02:49:13.507Z,18.10
2018-07-26T02:51:41.820Z,18.00
2018-07-26T02:54:10.255Z,17.90
2018-07-26T02:56:38.602Z,17.80
2018-07-26T02:59:06.991Z,17.80
2018-07-26T03:01:35.351Z,17.80
2018-07-26T03:04:03.875Z,17.70
2018-07-26T03:06:32.319Z,17.70
2018-07-26T03:09:00.703Z,17.60
2018-07-26T03:11:29.119Z,17.60
2018-07-26T03:13:57.463Z,17.60
2018-07-26T03:16:25.933Z,17.70
2018-07-26T03:18:54.787Z,17.70
2018-07-26T03:21:23.246Z,17.90
2018-07-26T03:23:51.698Z,17.90
2018-07-26T03:26:20.191Z,17.90
2018-07-26T03:28:48.566Z,17.80
2018-07-26T03:31:16.928Z,17.80
2018-07-26T03:33:45.307Z,17.80
2018-07-26T03:36:13.700Z,17.90
2018-07-26T03:38:42.329Z,17.90
2018-07-26T03:41:10.668Z,17.90
2018-07-26T03:43:39.107Z,17.90
2018-07-26T03:46:07.431Z,17.80
2018-07-26T03:48:35.883Z,17.80
2018-07-26T03:51:04.321Z,17.90
2018-07-26T03:53:32.676Z,17.90
2018-07-26T03:56:01.264Z,18.00
2018-07-26T03:58:29.635Z,18.00
2018-07-26T04:00:58.170Z,17.90
2018-07-26T04:03:26.641Z,17.90
2018-07-26T04:05:55.040Z,17.90
2018-07-26T04:08:23.358Z,17.80
2018-07-26T04:10:51.743Z,17.90
2018-07-26T04:13:20.147Z,17.80
2018-07-26T04:15:48.537Z,17.80
2018-07-26T04:18:16.958Z,17.70
2018-07-26T04:20:45.293Z,17.80
2018-07-26T04:23:13.794Z,17.80
2018-07-26T04:25:42.130Z,17.80
2018-07-26T04:28:10.578Z,17.90
2018-07-26T04:30:38.906Z,17.90
2018-07-26T04:33:07.580Z,17.90
2018-07-26T04:35:35.993Z,17.80
2018-07-26T04:38:04.425Z,17.90
2018-07-26T04:40:32.879Z,17.90
2018-07-26T04:43:01.319Z,18.00
2018-07-26T04:45:29.622Z,18.10
2018-07-26T04:47:58.028Z,18.20
2018-07-26T04:50:26.449Z,18.20
2018-07-26T04:52:54.926Z,18.20
2018-07-26T04:55:23.302Z,18.20
2018-07-26T04:57:51.783Z,18.40
2018-07-26T05:00:20.312Z,18.40
2018-07-26T05:02:48.692Z,18.50
2018-07-26T05:05:17.047Z,18.60
2018-07-26T05:07:45.420Z,18.60
2018-07-26T05:10:13.815Z,18.80
2018-07-26T05:12:42.198Z,19.10
2018-07-26T05:15:10.564Z,19.10
2018-07-26T05:17:39.009Z,19.30
2018-07-26T05:20:08.233Z,19.80
2018-07-26T05:22:37.219Z,21.00
2018-07-26T05:25:05.656Z,22.20
2018-07-26T05:27:34.005Z,23.10
2018-07-26T05:30:02.894Z,24.00
2018-07-26T05:32:33.297Z,24.70
2018-07-26T05:35:01.691Z,25.40
2018-07-26T05:37:30.086Z,26.00
2018-07-26T05:39:58.427Z,26.70
2018-07-26T05:42:26.802Z,27.30
2018-07-26T05:44:55.174Z,27.60
2018-07-26T05:47:23.527Z,27.80
2018-07-26T05:49:51.965Z,27.80
2018-07-26T05:52:20.363Z,28.20
2018-07-26T05:54:48.714Z,28.40
2018-07-26T05:57:17.068Z,28.60
2018-07-26T05:59:45.753Z,28.70
2018-07-26T06:02:14.201Z,28.90
2018-07-26T06:04:42.679Z,28.90
2018-07-26T06:07:11.081Z,28.80
2018-07-26T06:09:39.585Z,28.80
2018-07-26T06:12:08.179Z,28.30
2018-07-26T06:14:36.668Z,28.70
2018-07-26T06:17:05.201Z,28.90
2018-07-26T06:19:33.614Z,29.30
2018-07-26T06:22:02.111Z,29.30
2018-07-26T06:24:30.552Z,29.20
2018-07-26T06:26:58.939Z,29.40
2018-07-26T06:29:27.289Z,29.00
2018-07-26T06:31:55.669Z,28.70
2018-07-26T06:34:24.133Z,29.10
2018-07-26T06:36:52.689Z,29.40
2018-07-26T06:39:43.572Z,29.50
2018-07-26T06:42:12.930Z,29.90
2018-07-26T06:44:41.354Z,30.30
2018-07-26T06:47:10.224Z,30.60
2018-07-26T06:49:38.535Z,30.20
2018-07-26T06:52:07.352Z,29.90
2018-07-26T06:54:35.746Z,29.80
2018-07-26T06:57:04.274Z,29.30
2018-07-26T06:59:32.583Z,29.40
2018-07-26T07:02:01.005Z,29.00
2018-07-26T07:04:29.430Z,29.20
2018-07-26T07:06:57.869Z,29.50
2018-07-26T07:09:26.252Z,29.30
2018-07-26T07:11:54.612Z,29.30
2018-07-26T07:14:23.091Z,29.20
2018-07-26T07:16:51.441Z,29.50
2018-07-26T07:19:19.831Z,29.90
2018-07-26T07:21:48.196Z,30.00
2018-07-26T07:24:20.362Z,30.10
2018-07-26T07:26:50.362Z,30.00
2018-07-26T07:29:19.362Z,30.00
2018-07-26T07:31:47.830Z,29.80
2018-07-26T07:34:16.301Z,29.90
2018-07-26T07:36:44.738Z,29.80
2018-07-26T07:39:14.059Z,29.90
2018-07-26T07:41:42.559Z,29.90
2018-07-26T07:44:11.019Z,29.90
2018-07-26T07:46:39.978Z,29.50
2018-07-26T07:49:08.509Z,29.30
2018-07-26T07:51:36.909Z,29.40
2018-07-26T07:54:05.321Z,29.60
2018-07-26T07:56:33.742Z,29.80
2018-07-26T07:59:02.149Z,29.60
2018-07-26T08:01:30.585Z,29.60
2018-07-26T08:03:59.099Z,29.80
2018-07-26T08:06:27.525Z,29.90
2018-07-26T08:08:56.028Z,29.60
2018-07-26T08:11:24.352Z,29.90
2018-07-26T08:13:52.707Z,29.90
2018-07-26T08:16:21.051Z,29.40
2018-07-26T08:18:49.477Z,29.40
2018-07-26T08:21:17.863Z,29.30
2018-07-26T08:23:46.228Z,29.70
2018-07-26T08:26:14.668Z,30.10
2018-07-26T08:28:43.209Z,30.00
2018-07-26T08:31:11.705Z,29.90
2018-07-26T08:33:40.140Z,30.00
2018-07-26T08:36:08.554Z,29.60
2018-07-26T08:38:36.925Z,29.70
2018-07-26T08:41:05.334Z,29.90
2018-07-26T08:43:33.811Z,29.80
2018-07-26T08:46:02.150Z,29.60
2018-07-26T08:48:30.650Z,30.00
2018-07-26T08:50:59.115Z,30.30
2018-07-26T08:53:27.569Z,30.00
2018-07-26T08:55:55.949Z,29.20
2018-07-26T08:58:24.334Z,28.80
2018-07-26T09:00:52.699Z,29.50
2018-07-26T09:03:21.073Z,29.60
2018-07-26T09:05:49.540Z,29.90
2018-07-26T09:08:17.950Z,30.10
2018-07-26T09:10:46.425Z,29.80
2018-07-26T09:13:14.837Z,30.10
2018-07-26T09:15:43.230Z,30.60
2018-07-26T09:18:11.603Z,30.30
2018-07-26T09:20:39.989Z,29.60
2018-07-26T09:23:08.412Z,29.30
2018-07-26T09:25:36.777Z,29.70
2018-07-26T09:28:05.186Z,30.00
2018-07-26T09:30:33.647Z,30.30
2018-07-26T09:33:02.150Z,30.50
2018-07-26T09:35:30.656Z,30.10
2018-07-26T09:37:58.957Z,30.00
2018-07-26T09:40:27.400Z,30.20
2018-07-26T09:42:55.802Z,30.40
2018-07-26T09:45:24.232Z,30.70
2018-07-26T09:47:52.630Z,30.60
2018-07-26T09:50:20.985Z,30.50
2018-07-26T09:52:49.408Z,30.60
2018-07-26T09:55:17.766Z,30.50
2018-07-26T09:57:46.153Z,30.00
2018-07-26T10:00:18.836Z,29.70
2018-07-26T10:02:47.144Z,30.20
2018-07-26T10:05:15.525Z,29.80
2018-07-26T10:07:43.915Z,29.50
2018-07-26T10:10:12.351Z,29.90
2018-07-26T10:12:40.733Z,30.20
2018-07-26T10:15:09.147Z,30.40
2018-07-26T10:17:37.488Z,30.60
2018-07-26T10:20:05.999Z,30.50
2018-07-26T10:22:34.356Z,30.50
2018-07-26T10:25:02.744Z,30.80
2018-07-26T10:27:31.210Z,30.80
2018-07-26T10:29:59.519Z,30.60
2018-07-26T10:32:27.864Z,30.30
2018-07-26T10:34:56.241Z,31.00
2018-07-26T10:37:24.661Z,30.70
2018-07-26T10:39:53.332Z,31.00
2018-07-26T10:42:21.666Z,30.60
2018-07-26T10:44:50.078Z,30.50
2018-07-26T10:47:18.500Z,30.40
2018-07-26T10:49:46.898Z,29.60
2018-07-26T10:52:15.290Z,29.70
2018-07-26T10:54:43.627Z,29.70
2018-07-26T10:57:12.057Z,30.30
2018-07-26T10:59:40.427Z,29.90
2018-07-26T11:02:09.165Z,29.30
2018-07-26T11:04:37.536Z,29.00
2018-07-26T11:07:06.050Z,29.70
2018-07-26T11:09:34.489Z,30.30
2018-07-26T11:12:03.696Z,30.30
2018-07-26T11:14:32.469Z,30.50
2018-07-26T11:17:00.884Z,30.60
2018-07-26T11:19:29.335Z,29.90
2018-07-26T11:21:57.996Z,29.80
2018-07-26T11:24:26.390Z,29.90
2018-07-26T11:26:54.791Z,30.00
2018-07-26T11:29:23.363Z,29.60
2018-07-26T11:31:52.063Z,30.00
2018-07-26T11:34:20.580Z,30.10
2018-07-26T11:36:48.935Z,30.20
2018-07-26T11:39:17.275Z,30.20
2018-07-26T11:41:45.781Z,30.30
2018-07-26T11:44:14.088Z,30.30
2018-07-26T11:46:42.629Z,30.50
2018-07-26T11:49:11.008Z,30.30
2018-07-26T11:51:39.427Z,30.10
2018-07-26T11:54:07.835Z,30.60
2018-07-26T11:56:36.321Z,30.60
2018-07-26T11:59:04.672Z,30.60
2018-07-26T12:01:33.097Z,30.30
2018-07-26T12:04:01.447Z,30.50
2018-07-26T12:06:29.830Z,30.40
2018-07-26T12:08:58.157Z,29.90
2018-07-26T12:11:26.496Z,29.30
2018-07-26T12:13:54.849Z,29.40
2018-07-26T12:16:23.213Z,29.10
2018-07-26T12:18:51.679Z,28.90
2018-07-26T12:21:19.982Z,29.00
2018-07-26T12:23:48.325Z,29.20
2018-07-26T12:26:16.753Z,29.20
2018-07-26T12:28:45.135Z,29.40
2018-07-26T12:31:13.532Z,29.50
2018-07-26T12:33:41.927Z,28.90
2018-07-26T12:36:10.388Z,28.60
2018-07-26T12:38:38.751Z,28.50
2018-07-26T12:41:07.177Z,28.30
2018-07-26T12:43:35.619Z,28.50
2018-07-26T12:46:04.065Z,28.90
2018-07-26T12:48:32.464Z,29.10
2018-07-26T12:51:01.155Z,29.20
2018-07-26T12:53:29.505Z,29.10
2018-07-26T12:55:57.939Z,29.40
2018-07-26T12:58:26.361Z,29.30
2018-07-26T13:00:54.981Z,28.80
2018-07-26T13:03:23.381Z,28.90
2018-07-26T13:05:51.786Z,28.90
2018-07-26T13:08:20.194Z,29.00
2018-07-26T13:10:48.676Z,28.80
2018-07-26T13:13:17.085Z,29.00
2018-07-26T13:15:45.517Z,28.90
2018-07-26T13:18:13.890Z,29.00
2018-07-26T13:20:42.355Z,29.00
2018-07-26T13:23:10.817Z,29.20
2018-07-26T13:25:39.229Z,29.20
2018-07-26T13:28:07.584Z,29.40
2018-07-26T13:30:36.031Z,29.50
2018-07-26T13:33:04.391Z,29.20
2018-07-26T13:35:32.825Z,29.20
2018-07-26T13:38:01.199Z,29.40
2018-07-26T13:40:29.611Z,29.30
2018-07-26T13:42:58.811Z,28.90
2018-07-26T13:45:27.223Z,28.90
2018-07-26T13:50:23.671Z,28.90
2018-07-26T13:52:52.044Z,29.00
2018-07-26T13:55:20.405Z,29.20
2018-07-26T13:57:48.782Z,29.20
2018-07-26T14:00:17.800Z,29.10
2018-07-26T14:02:46.163Z,28.80
2018-07-26T14:07:42.691Z,28.80
2018-07-26T14:10:11.105Z,28.80
2018-07-26T14:12:39.584Z,28.90
2018-07-26T14:15:09.626Z,28.60
2018-07-26T14:17:38.431Z,28.50
2018-07-26T14:20:08.575Z,28.50
2018-07-26T14:22:36.936Z,28.40
2018-07-26T14:25:06.007Z,28.00
2018-07-26T14:27:34.461Z,28.00
2018-07-26T14:30:02.895Z,28.20
2018-07-26T14:32:31.316Z,28.30
2018-07-26T14:34:59.728Z,28.40
2018-07-26T14:37:28.182Z,28.20
2018-07-26T14:39:56.630Z,28.30
2018-07-26T14:42:25.067Z,28.10
2018-07-26T14:44:53.460Z,27.90
2018-07-26T14:47:21.870Z,28.00
2018-07-26T14:49:50.174Z,28.10
2018-07-26T14:52:18.590Z,28.00
2018-07-26T14:54:46.998Z,28.10
2018-07-26T14:57:15.442Z,28.30
2018-07-26T14:59:43.767Z,28.50
2018-07-26T15:02:12.150Z,28.50
2018-07-26T15:04:40.554Z,28.70
2018-07-26T15:07:08.901Z,28.60
2018-07-26T15:09:37.261Z,28.70
2018-07-26T15:12:05.811Z,28.70
2018-07-26T15:14:34.243Z,28.60
2018-07-26T15:17:02.614Z,28.60
2018-07-26T15:19:30.940Z,28.50
2018-07-26T15:21:59.277Z,28.20
2018-07-26T15:24:28.697Z,28.20
2018-07-26T15:26:57.126Z,28.20
2018-07-26T15:29:25.612Z,28.20
2018-07-26T15:31:53.919Z,28.00
2018-07-26T15:34:22.269Z,27.90
2018-07-26T15:36:50.632Z,28.10
2018-07-26T15:39:19.045Z,28.10
2018-07-26T15:41:47.408Z,28.30
2018-07-26T15:44:16.293Z,28.10
2018-07-26T15:46:44.816Z,28.00
2018-07-26T15:49:13.192Z,28.10
2018-07-26T15:51:41.674Z,28.30
2018-07-26T15:54:10.093Z,28.40
2018-07-26T15:56:38.413Z,28.50
2018-07-26T15:59:06.846Z,28.50
2018-07-26T16:01:35.260Z,28.20
2018-07-26T16:04:03.733Z,28.00
2018-07-26T16:06:32.170Z,28.00
2018-07-26T16:09:00.616Z,28.00
2018-07-26T16:11:28.981Z,28.10
2018-07-26T16:13:57.346Z,28.20
2018-07-26T16:16:25.742Z,28.00
2018-07-26T16:18:54.080Z,27.70
2018-07-26T16:21:22.462Z,27.70
2018-07-26T16:23:50.825Z,27.80
2018-07-26T16:26:19.140Z,27.90
2018-07-26T16:28:47.605Z,28.10
2018-07-26T16:31:15.960Z,28.20
2018-07-26T16:33:44.374Z,28.20
2018-07-26T16:36:12.816Z,27.90
2018-07-26T16:38:41.258Z,27.70
2018-07-26T16:41:09.877Z,27.80
2018-07-26T16:43:38.275Z,27.80
2018-07-26T16:46:06.653Z,27.70
2018-07-26T16:48:35.051Z,27.70
2018-07-26T16:51:03.459Z,27.80
2018-07-26T16:53:31.822Z,27.70
2018-07-26T16:56:00.216Z,27.80
2018-07-26T16:58:28.738Z,28.00
2018-07-26T17:00:57.088Z,28.10
2018-07-26T17:03:25.401Z,28.00
2018-07-26T17:05:54.513Z,27.80
2018-07-26T17:08:22.889Z,27.70
2018-07-26T17:10:51.307Z,27.50
2018-07-26T17:13:19.669Z,27.40
2018-07-26T17:15:48.085Z,27.40
2018-07-26T17:18:16.416Z,27.50
2018-07-26T17:20:44.848Z,27.60
2018-07-26T17:23:13.242Z,27.60
2018-07-26T17:25:41.596Z,27.40
2018-07-26T17:28:10.065Z,27.40
2018-07-26T17:30:38.365Z,27.50
2018-07-26T17:33:07.043Z,27.40
2018-07-26T17:35:35.461Z,27.50
2018-07-26T17:38:04.531Z,27.30
2018-07-26T17:40:32.997Z,27.20
2018-07-26T17:43:01.499Z,27.10
2018-07-26T17:45:29.996Z,27.20
2018-07-26T17:47:58.457Z,27.10
2018-07-26T17:50:26.875Z,27.30
2018-07-26T17:52:55.431Z,27.10
2018-07-26T17:55:23.883Z,27.20
2018-07-26T17:57:52.278Z,27.20
2018-07-26T18:00:20.801Z,27.00
2018-07-26T18:02:49.235Z,26.90
2018-07-26T18:05:17.649Z,26.90
2018-07-26T18:07:46.091Z,26.90
2018-07-26T18:10:14.670Z,26.80
2018-07-26T18:12:43.151Z,26.70
2018-07-26T18:15:11.615Z,26.70
2018-07-26T18:17:40.049Z,26.80
2018-07-26T18:20:08.507Z,26.70
2018-07-26T18:22:36.872Z,26.40
2018-07-26T18:25:05.225Z,26.40
2018-07-26T18:27:33.624Z,26.30
2018-07-26T18:30:02.040Z,26.30
2018-07-26T18:32:30.825Z,26.10
2018-07-26T18:34:59.153Z,26.10
2018-07-26T18:37:27.556Z,26.00
2018-07-26T18:39:55.959Z,25.90
2018-07-26T18:42:24.282Z,25.90
2018-07-26T18:44:52.775Z,25.70
2018-07-26T18:47:21.118Z,25.80
2018-07-26T18:49:49.471Z,25.90
2018-07-26T18:54:45.871Z,25.80
2018-07-26T18:57:14.303Z,25.70
2018-07-26T18:59:42.687Z,25.60
2018-07-26T19:02:11.054Z,25.50
2018-07-26T19:04:39.382Z,25.50
2018-07-26T19:07:08.598Z,25.50
2018-07-26T19:09:36.978Z,25.40
2018-07-26T19:12:05.367Z,25.30
2018-07-26T19:14:33.745Z,25.30
2018-07-26T19:17:02.141Z,25.20
2018-07-26T19:19:30.580Z,25.10
2018-07-26T19:21:58.922Z,25.10
2018-07-26T19:24:27.242Z,25.00
2018-07-26T19:26:55.583Z,25.10
2018-07-26T19:29:24.057Z,25.00
2018-07-26T19:31:52.539Z,24.90
2018-07-26T19:34:20.972Z,24.80
2018-07-26T19:36:49.358Z,24.90
2018-07-26T19:39:17.729Z,24.80
2018-07-26T19:41:46.129Z,24.60
2018-07-26T19:44:14.603Z,24.40
2018-07-26T19:46:42.912Z,24.40
2018-07-26T19:49:11.262Z,24.20
2018-07-26T19:51:39.730Z,24.10
2018-07-26T19:54:08.161Z,24.10
2018-07-26T19:56:36.508Z,24.00
2018-07-26T19:59:04.913Z,23.90
2018-07-26T20:01:33.251Z,23.80
2018-07-26T20:04:01.620Z,23.70
2018-07-26T20:06:30.073Z,23.60
2018-07-26T20:08:58.418Z,23.60
2018-07-26T20:11:26.777Z,23.50
2018-07-26T20:13:55.155Z,23.40
2018-07-26T20:16:23.620Z,23.20
2018-07-26T20:18:51.963Z,23.20
2018-07-26T20:21:20.322Z,23.20
2018-07-26T20:23:48.681Z,23.10
2018-07-26T20:26:17.057Z,23.00
2018-07-26T20:28:45.459Z,22.90
2018-07-26T20:31:13.908Z,22.80
2018-07-26T20:33:42.225Z,22.70
2018-07-26T20:36:10.537Z,22.80
2018-07-26T20:38:38.905Z,22.70
2018-07-26T20:41:07.256Z,22.70
2018-07-26T20:43:36.787Z,22.60
2018-07-26T20:46:05.194Z,22.50
2018-07-26T20:48:33.685Z,22.50
2018-07-26T20:51:01.978Z,22.40
2018-07-26T20:53:30.468Z,22.40
2018-07-26T20:55:59.177Z,22.30
2018-07-26T20:58:27.548Z,22.20
2018-07-26T21:00:55.929Z,22.20
2018-07-26T21:03:24.284Z,22.20
2018-07-26T21:05:52.684Z,22.10
2018-07-26T21:08:21.066Z,22.00
2018-07-26T21:10:49.516Z,22.00
2018-07-26T21:13:17.870Z,21.80
2018-07-26T21:15:46.275Z,21.80
2018-07-26T21:18:14.659Z,21.80
2018-07-26T21:20:42.971Z,21.80
2018-07-26T21:23:11.349Z,21.80
2018-07-26T21:25:39.712Z,21.80
2018-07-26T21:28:08.230Z,21.70
2018-07-26T21:30:36.542Z,21.80
2018-07-26T21:33:04.886Z,21.70
2018-07-26T21:35:33.353Z,21.70
2018-07-26T21:38:01.736Z,21.60
2018-07-26T21:40:30.087Z,21.50
2018-07-26T21:42:58.446Z,21.50
2018-07-26T21:45:26.818Z,21.50
2018-07-26T21:47:55.499Z,21.40
2018-07-26T21:50:23.959Z,21.30
2018-07-26T21:52:52.322Z,21.30
2018-07-26T21:55:20.786Z,21.30
2018-07-26T21:57:49.279Z,21.30
2018-07-26T22:00:17.610Z,21.30
2018-07-26T22:02:46.030Z,21.30
2018-07-26T22:05:14.444Z,21.30
2018-07-26T22:07:42.896Z,21.20
2018-07-26T22:10:11.401Z,21.20
2018-07-26T22:12:39.814Z,21.00
2018-07-26T22:15:08.270Z,21.00
2018-07-26T22:17:36.632Z,21.00
2018-07-26T22:20:05.315Z,21.00
2018-07-26T22:22:33.717Z,21.20
2018-07-26T22:25:02.200Z,21.10
2018-07-26T22:27:30.616Z,21.10
2018-07-26T22:29:58.938Z,21.10
2018-07-26T22:32:27.321Z,21.20
2018-07-26T22:34:55.702Z,21.20
2018-07-26T22:37:24.067Z,21.30
2018-07-26T22:39:52.505Z,21.30
2018-07-26T22:42:20.868Z,21.30
2018-07-26T22:44:49.291Z,21.20
2018-07-26T22:47:17.662Z,21.10
2018-07-26T22:49:45.992Z,21.00
2018-07-26T22:52:14.341Z,21.20
2018-07-26T22:54:42.785Z,21.10
2018-07-26T22:57:11.187Z,21.10
2018-07-26T22:59:39.518Z,21.10
2018-07-26T23:02:07.942Z,21.20
2018-07-26T23:04:36.279Z,21.20
2018-07-26T23:07:04.766Z,21.30
2018-07-26T23:09:33.028Z,21.20
2018-07-26T23:12:01.337Z,21.10
2018-07-26T23:14:29.664Z,21.00
2018-07-26T23:16:57.961Z,20.90
2018-07-26T23:19:26.298Z,20.90
2018-07-26T23:21:54.568Z,20.90
2018-07-26T23:24:22.911Z,20.90
2018-07-26T23:26:51.237Z,20.80
2018-07-26T23:29:19.504Z,20.70
2018-07-26T23:31:47.833Z,20.60
2018-07-26T23:34:16.141Z,20.50
2018-07-26T23:36:44.487Z,20.50
2018-07-26T23:39:13.228Z,20.40
2018-07-26T23:41:41.601Z,20.30
2018-07-26T23:44:10.190Z,20.30
2018-07-26T23:46:38.779Z,20.20
2018-07-26T23:49:07.140Z,20.20
2018-07-26T23:51:35.492Z,20.10
2018-07-26T23:54:03.865Z,20.10
2018-07-26T23:56:32.239Z,20.00
2018-07-26T23:59:00.566Z,20.00
